createdAt,value
2024-05-09T00:02:25.146Z,5.10
2024-05-09T00:04:55.619Z,5.80
2024-05-09T00:07:25.992Z,4.30
2024-05-09T00:09:56.289Z,4.75
2024-05-09T00:12:29.182Z,5.07
2024-05-09T00:14:59.440Z,5.28
2024-05-09T00:17:29.787Z,4.43
2024-05-09T00:20:00.274Z,4.53
2024-05-09T00:22:30.512Z,5.13
2024-05-09T00:25:00.759Z,4.72
2024-05-09T00:27:33.521Z,4.25
2024-05-09T00:30:04.286Z,4.15
2024-05-09T00:32:34.701Z,4.95
2024-05-09T00:35:05.113Z,4.38
2024-05-09T00:37:35.331Z,4.55
2024-05-09T00:40:07.400Z,4.32
2024-05-09T00:42:43.387Z,3.38
2024-05-09T00:45:13.618Z,4.40
2024-05-09T00:47:45.992Z,3.80
2024-05-09T00:50:22.733Z,3.72
2024-05-09T00:53:00.016Z,4.20
2024-05-09T00:55:30.586Z,4.97
2024-05-09T00:58:03.960Z,4.60
2024-05-09T01:00:39.266Z,3.95
2024-05-09T01:03:13.370Z,4.38
2024-05-09T01:05:45.261Z,3.95
2024-05-09T01:08:16.623Z,3.80
2024-05-09T01:10:48.766Z,3.65
2024-05-09T01:13:22.469Z,4.35
2024-05-09T01:15:54.101Z,3.58
2024-05-09T01:18:24.452Z,4.00
2024-05-09T01:20:54.871Z,3.67
2024-05-09T01:23:27.836Z,4.03
2024-05-09T01:25:58.154Z,3.72
2024-05-09T01:28:28.487Z,4.53
2024-05-09T01:30:58.800Z,3.85
2024-05-09T01:33:29.226Z,4.15
2024-05-09T01:35:59.855Z,3.50
2024-05-09T01:38:32.911Z,4.05
2024-05-09T01:41:03.379Z,3.85
2024-05-09T01:43:33.603Z,4.07
2024-05-09T01:46:03.867Z,3.72
2024-05-09T01:48:34.141Z,3.70
2024-05-09T01:51:04.683Z,3.42
2024-05-09T01:53:37.714Z,3.80
2024-05-09T01:56:08.803Z,4.13
2024-05-09T01:58:39.045Z,3.85
2024-05-09T02:01:09.307Z,4.13
2024-05-09T02:03:39.753Z,4.32
2024-05-09T02:06:10.280Z,4.50
2024-05-09T02:08:43.507Z,3.85
2024-05-09T02:11:13.835Z,3.85
2024-05-09T02:13:44.781Z,4.53
2024-05-09T02:16:16.778Z,4.80
2024-05-09T02:18:47.177Z,4.90
2024-05-09T02:21:17.455Z,4.10
2024-05-09T02:23:50.255Z,4.63
2024-05-09T02:26:20.516Z,4.55
2024-05-09T02:28:50.776Z,3.72
2024-05-09T02:31:22.504Z,4.43
2024-05-09T02:33:53.159Z,3.92
2024-05-09T02:36:23.759Z,4.13
2024-05-09T02:38:54.045Z,3.95
2024-05-09T02:41:24.929Z,3.65
2024-05-09T02:43:53.136Z,4.03
2024-05-09T02:46:23.875Z,4.13
2024-05-09T02:48:53.578Z,3.92
2024-05-09T02:51:24.070Z,4.53
2024-05-09T02:54:01.890Z,5.03
2024-05-09T02:56:32.158Z,4.22
2024-05-09T02:58:59.864Z,4.40
2024-05-09T03:01:30.367Z,4.22
2024-05-09T03:03:58.168Z,4.20
2024-05-09T03:06:28.459Z,4.82
2024-05-09T03:08:56.024Z,4.32
2024-05-09T03:11:29.335Z,4.80
2024-05-09T03:13:56.987Z,4.50
2024-05-09T03:16:27.253Z,4.18
2024-05-09T03:18:55.210Z,3.75
2024-05-09T03:21:25.546Z,4.13
2024-05-09T03:23:53.168Z,3.42
2024-05-09T03:26:23.488Z,3.88
2024-05-09T03:28:53.736Z,4.10
2024-05-09T03:31:24.041Z,4.53
2024-05-09T03:33:51.804Z,4.57
2024-05-09T03:36:22.100Z,4.30
2024-05-09T03:38:52.396Z,4.00
2024-05-09T03:41:22.921Z,4.35
2024-05-09T03:43:55.924Z,3.83
2024-05-09T03:46:23.556Z,4.55
2024-05-09T03:48:53.907Z,3.25
2024-05-09T03:51:22.831Z,4.07
2024-05-09T03:53:53.027Z,3.97
2024-05-09T03:56:20.645Z,3.72
2024-05-09T03:58:50.881Z,4.03
2024-05-09T04:01:21.324Z,4.07
2024-05-09T04:03:51.772Z,3.42
2024-05-09T04:06:24.228Z,3.83
2024-05-09T04:08:54.685Z,3.90
2024-05-09T04:11:22.419Z,4.00
2024-05-09T04:13:52.711Z,3.72
2024-05-09T04:16:23.404Z,4.53
2024-05-09T04:18:53.756Z,4.55
2024-05-09T04:21:21.363Z,4.13
2024-05-09T04:23:51.557Z,3.90
2024-05-09T04:26:19.295Z,3.70
2024-05-09T04:28:49.692Z,4.40
2024-05-09T04:31:17.332Z,3.88
2024-05-09T04:33:50.242Z,4.28
2024-05-09T04:36:17.928Z,4.50
2024-05-09T04:38:48.205Z,4.22
2024-05-09T04:41:15.854Z,4.18
2024-05-09T04:43:46.114Z,4.03
2024-05-09T04:46:14.944Z,4.53
2024-05-09T04:48:45.218Z,4.93
2024-05-09T04:51:15.472Z,4.40
2024-05-09T04:53:45.785Z,4.38
2024-05-09T04:56:13.516Z,4.22
2024-05-09T04:58:44.103Z,4.50
2024-05-09T05:01:11.831Z,3.80
2024-05-09T05:03:42.349Z,4.60
2024-05-09T05:06:10.289Z,3.97
2024-05-09T05:08:43.188Z,4.35
2024-05-09T05:11:12.640Z,4.47
2024-05-09T05:13:43.237Z,4.00
2024-05-09T05:16:10.776Z,4.40
2024-05-09T05:18:41.142Z,3.58
2024-05-09T05:21:08.887Z,4.38
2024-05-09T05:23:40.857Z,4.32
2024-05-09T05:26:11.250Z,4.35
2024-05-09T05:28:41.512Z,4.32
2024-05-09T05:31:09.076Z,4.32
2024-05-09T05:33:39.438Z,4.20
2024-05-09T05:36:08.083Z,4.30
2024-05-09T05:38:38.370Z,4.13
2024-05-09T05:41:06.077Z,4.60
2024-05-09T05:43:38.957Z,4.40
2024-05-09T05:46:06.559Z,4.30
2024-05-09T05:48:36.816Z,5.05
2024-05-09T05:51:06.331Z,4.05
2024-05-09T05:53:36.749Z,4.38
2024-05-09T05:56:05.984Z,4.43
2024-05-09T05:58:38.842Z,4.53
2024-05-09T06:01:06.469Z,4.25
2024-05-09T06:03:36.867Z,4.45
2024-05-09T06:06:05.145Z,4.22
2024-05-09T06:08:35.562Z,4.53
2024-05-09T06:11:04.126Z,3.92
2024-05-09T06:13:34.443Z,4.25
2024-05-09T06:16:05.658Z,5.15
2024-05-09T06:18:36.297Z,4.55
2024-05-09T06:21:04.145Z,4.07
2024-05-09T06:23:34.577Z,4.70
2024-05-09T06:26:02.320Z,4.68
2024-05-09T06:28:32.536Z,4.47
2024-05-09T06:31:05.156Z,4.95
2024-05-09T06:33:35.777Z,4.88
2024-05-09T06:36:03.957Z,4.50
2024-05-09T06:38:34.571Z,4.10
2024-05-09T06:41:02.264Z,3.80
2024-05-09T06:43:32.524Z,3.65
2024-05-09T06:46:00.077Z,4.43
2024-05-09T06:48:33.389Z,4.78
2024-05-09T06:51:01.289Z,4.82
2024-05-09T06:53:31.700Z,5.13
2024-05-09T06:55:59.456Z,4.82
2024-05-09T06:58:29.728Z,4.18
2024-05-09T07:00:57.327Z,4.90
2024-05-09T07:03:27.969Z,4.97
2024-05-09T07:05:58.324Z,5.13
2024-05-09T07:08:28.605Z,4.70
2024-05-09T07:10:56.259Z,5.65
2024-05-09T07:13:26.551Z,5.45
2024-05-09T07:15:54.136Z,5.68
2024-05-09T07:18:24.538Z,4.65
2024-05-09T07:20:52.250Z,4.32
2024-05-09T07:23:25.188Z,4.57
2024-05-09T07:25:52.793Z,4.57
2024-05-09T07:28:24.857Z,3.83
2024-05-09T07:30:55.137Z,4.03
2024-05-09T07:33:24.350Z,4.28
2024-05-09T07:35:54.988Z,3.85
2024-05-09T07:38:25.500Z,4.88
2024-05-09T07:40:55.816Z,4.40
2024-05-09T07:43:23.435Z,3.88
2024-05-09T07:45:55.376Z,4.20
2024-05-09T07:53:00.892Z,4.75
2024-05-09T07:53:52.396Z,5.00
2024-05-09T07:56:26.121Z,3.90
2024-05-09T07:58:54.522Z,4.28
2024-05-09T08:01:26.636Z,4.40
2024-05-09T08:03:54.860Z,3.72
2024-05-09T08:06:26.453Z,4.22
2024-05-09T08:08:57.879Z,5.45
2024-05-09T08:11:29.339Z,3.75
2024-05-09T08:13:57.075Z,3.58
2024-05-09T08:16:27.517Z,3.65
2024-05-09T08:18:55.422Z,4.18
2024-05-09T08:21:26.737Z,4.32
2024-05-09T08:23:57.018Z,4.55
2024-05-09T08:26:27.249Z,4.00
2024-05-09T08:28:54.884Z,3.55
2024-05-09T08:31:25.218Z,3.20
2024-05-09T08:33:53.166Z,3.58
2024-05-09T08:36:23.587Z,4.90
2024-05-09T08:38:51.206Z,3.47
2024-05-09T08:41:24.086Z,4.18
2024-05-09T08:43:51.827Z,3.58
2024-05-09T08:46:22.192Z,3.85
2024-05-09T08:48:52.388Z,3.88
2024-05-09T08:51:23.142Z,4.80
2024-05-09T08:53:50.752Z,3.78
2024-05-09T08:56:28.951Z,3.92
2024-05-09T08:59:01.147Z,4.50
2024-05-09T09:01:34.226Z,3.85
2024-05-09T09:04:04.368Z,3.60
2024-05-09T09:06:37.510Z,3.22
2024-05-09T09:09:05.640Z,3.65
2024-05-09T09:11:38.503Z,3.85
2024-05-09T09:14:06.085Z,3.92
2024-05-09T09:16:37.087Z,3.63
2024-05-09T09:19:05.394Z,4.05
2024-05-09T09:21:35.802Z,3.80
2024-05-09T09:24:03.750Z,4.20
2024-05-09T09:26:34.325Z,3.90
2024-05-09T09:29:04.587Z,2.90
2024-05-09T09:31:34.861Z,3.38
2024-05-09T09:34:08.619Z,2.33
2024-05-09T09:36:41.943Z,3.47
2024-05-09T09:39:10.857Z,3.40
2024-05-09T09:41:42.707Z,3.08
2024-05-09T09:44:13.100Z,2.65
2024-05-09T09:46:44.380Z,3.47
2024-05-09T09:49:12.392Z,3.47
2024-05-09T09:51:44.211Z,4.03
2024-05-09T09:54:13.271Z,3.15
2024-05-09T09:56:44.384Z,3.10
2024-05-09T09:59:15.804Z,3.53
2024-05-09T10:01:48.248Z,3.55
2024-05-09T10:04:19.005Z,3.42
2024-05-09T10:06:53.537Z,3.88
2024-05-09T10:09:22.759Z,3.90
2024-05-09T10:11:59.992Z,3.53
2024-05-09T10:14:33.583Z,4.05
2024-05-09T10:17:08.382Z,3.63
2024-05-09T10:19:36.078Z,3.13
2024-05-09T10:22:08.987Z,3.47
2024-05-09T10:24:48.174Z,4.10
2024-05-09T10:27:19.938Z,3.30
2024-05-09T10:29:57.840Z,3.75
2024-05-09T10:32:30.045Z,2.80
2024-05-09T10:35:01.286Z,3.65
2024-05-09T10:37:31.853Z,3.25
2024-05-09T10:40:00.247Z,3.53
2024-05-09T10:42:30.970Z,3.10
2024-05-09T10:45:03.223Z,3.05
2024-05-09T10:47:33.766Z,3.70
2024-05-09T10:50:01.753Z,2.90
2024-05-09T10:52:32.015Z,3.17
2024-05-09T10:55:00.967Z,3.60
2024-05-09T10:57:41.999Z,3.17
2024-05-09T11:00:19.448Z,3.42
2024-05-09T11:02:58.347Z,3.67
2024-05-09T11:05:26.414Z,3.60
2024-05-09T11:07:56.838Z,3.75
2024-05-09T11:10:33.340Z,3.78
2024-05-09T11:13:04.601Z,3.90
2024-05-09T11:15:41.868Z,3.42
2024-05-09T11:18:25.619Z,3.55
2024-05-09T11:20:55.897Z,3.83
2024-05-09T11:23:27.550Z,4.57
2024-05-09T11:25:56.842Z,4.45
2024-05-09T11:28:29.114Z,3.70
2024-05-09T11:31:09.849Z,5.57
2024-05-09T11:33:41.822Z,4.38
2024-05-09T11:36:10.531Z,4.53
2024-05-09T11:38:40.853Z,4.70
2024-05-09T11:41:08.582Z,3.53
2024-05-09T11:43:38.786Z,4.35
2024-05-09T11:46:09.199Z,5.00
2024-05-09T11:48:39.810Z,6.60
2024-05-09T11:51:07.671Z,5.55
2024-05-09T11:53:37.896Z,4.68
2024-05-09T11:56:06.143Z,4.32
2024-05-09T11:58:38.362Z,5.03
2024-05-09T12:01:08.834Z,3.85
2024-05-09T12:03:39.575Z,3.63
2024-05-09T12:06:07.440Z,3.47
2024-05-09T12:08:37.800Z,3.55
2024-05-09T12:11:05.905Z,4.18
2024-05-09T12:13:36.397Z,4.28
2024-05-09T12:16:04.273Z,3.60
2024-05-09T12:18:37.298Z,4.18
2024-05-09T12:21:06.070Z,3.55
2024-05-09T12:23:36.277Z,3.42
2024-05-09T12:26:04.232Z,3.47
2024-05-09T12:28:34.489Z,3.78
2024-05-09T12:31:02.187Z,3.63
2024-05-09T12:33:32.513Z,3.55
2024-05-09T12:36:03.160Z,4.18
2024-05-09T12:38:33.407Z,3.63
2024-05-09T12:41:01.178Z,3.92
2024-05-09T12:43:31.497Z,3.63
2024-05-09T12:45:59.212Z,4.18
2024-05-09T12:48:29.758Z,3.55
2024-05-09T12:50:57.863Z,3.88
2024-05-09T12:53:30.856Z,3.83
2024-05-09T12:56:02.239Z,4.20
2024-05-09T12:58:34.376Z,4.22
2024-05-09T13:01:02.118Z,3.92
2024-05-09T13:03:32.668Z,4.47
2024-05-09T13:06:00.486Z,4.07
2024-05-09T13:08:33.396Z,3.03
2024-05-09T13:11:01.231Z,2.92
2024-05-09T13:13:31.847Z,4.10
2024-05-09T13:15:59.687Z,3.42
2024-05-09T13:18:30.218Z,3.40
2024-05-09T13:20:57.948Z,3.38
2024-05-09T13:23:28.213Z,3.17
2024-05-09T13:25:58.536Z,3.45
2024-05-09T13:28:31.945Z,3.22
2024-05-09T13:30:59.680Z,2.85
2024-05-09T13:33:30.020Z,2.85
2024-05-09T13:35:58.001Z,3.53
2024-05-09T13:38:28.294Z,3.90
2024-05-09T13:40:58.603Z,3.90
2024-05-09T13:43:29.241Z,3.28
2024-05-09T13:45:57.590Z,3.40
2024-05-09T13:48:28.304Z,3.22
2024-05-09T13:50:57.019Z,3.40
2024-05-09T13:53:27.892Z,3.55
2024-05-09T13:55:58.113Z,2.47
2024-05-09T13:58:28.768Z,3.10
2024-05-09T14:00:56.569Z,3.05
2024-05-09T14:03:29.934Z,3.03
2024-05-09T14:05:58.104Z,2.90
2024-05-09T14:08:28.692Z,3.17
2024-05-09T14:10:59.128Z,2.83
2024-05-09T14:13:29.410Z,3.63
2024-05-09T14:15:57.164Z,2.90
2024-05-09T14:18:27.631Z,2.80
2024-05-09T14:20:55.300Z,2.67
2024-05-09T14:23:26.194Z,3.03
2024-05-09T14:25:53.828Z,2.90
2024-05-09T14:28:28.117Z,3.22
2024-05-09T14:30:56.952Z,3.90
2024-05-09T14:33:27.943Z,3.22
2024-05-09T14:35:55.765Z,2.70
2024-05-09T14:38:26.575Z,3.65
2024-05-09T14:40:54.913Z,3.55
2024-05-09T14:43:28.107Z,3.15
2024-05-09T14:45:56.111Z,2.85
2024-05-09T14:48:27.218Z,3.78
2024-05-09T14:50:54.928Z,3.25
2024-05-09T14:53:26.639Z,3.67
2024-05-09T14:55:54.580Z,3.15
2024-05-09T14:58:27.587Z,2.92
2024-05-09T15:00:55.378Z,2.92
2024-05-09T15:03:25.768Z,3.03
2024-05-09T15:05:53.614Z,3.28
2024-05-09T15:08:24.104Z,3.40
2024-05-09T15:10:52.137Z,3.28
2024-05-09T15:13:23.784Z,3.17
2024-05-09T15:15:54.797Z,3.00
2024-05-09T15:18:25.278Z,3.17
2024-05-09T15:20:52.953Z,3.00
2024-05-09T15:23:23.495Z,3.78
2024-05-09T15:25:51.093Z,3.83
2024-05-09T15:28:21.634Z,2.85
2024-05-09T15:30:49.393Z,2.75
2024-05-09T15:33:22.416Z,3.13
2024-05-09T15:35:51.738Z,3.00
2024-05-09T15:38:22.330Z,2.60
2024-05-09T15:40:50.095Z,3.33
2024-05-09T15:43:20.451Z,3.35
2024-05-09T15:45:48.122Z,2.60
2024-05-09T15:48:21.133Z,3.13
2024-05-09T15:50:48.807Z,3.25
2024-05-09T15:53:19.096Z,2.72
2024-05-09T15:55:46.793Z,3.10
2024-05-09T15:58:17.930Z,3.33
2024-05-09T16:00:47.867Z,2.88
2024-05-09T16:03:23.427Z,3.08
2024-05-09T16:05:51.995Z,3.17
2024-05-09T16:08:22.422Z,3.45
2024-05-09T16:10:50.261Z,3.28
2024-05-09T16:13:20.881Z,2.67
2024-05-09T16:15:51.754Z,3.03
2024-05-09T16:18:22.139Z,2.78
2024-05-09T16:20:59.519Z,3.33
2024-05-09T16:23:27.213Z,2.60
2024-05-09T16:25:58.000Z,3.03
2024-05-09T16:28:27.031Z,2.83
2024-05-09T16:30:58.316Z,3.17
2024-05-09T16:33:28.763Z,3.30
2024-05-09T16:36:00.138Z,3.38
2024-05-09T16:38:27.752Z,2.67
2024-05-09T16:40:58.046Z,2.75
2024-05-09T16:43:25.809Z,2.65
2024-05-09T16:45:56.330Z,3.33
2024-05-09T16:48:24.080Z,3.15
2024-05-09T16:50:56.981Z,3.58
2024-05-09T16:53:25.849Z,2.75
2024-05-09T16:55:56.223Z,2.55
2024-05-09T16:58:24.735Z,3.38
2024-05-09T17:00:55.164Z,3.53
2024-05-09T17:03:23.764Z,4.32
2024-05-09T17:05:56.913Z,3.95
2024-05-09T17:08:24.596Z,2.90
2024-05-09T17:10:55.647Z,3.25
2024-05-09T17:13:26.203Z,3.80
2024-05-09T17:15:56.642Z,3.22
2024-05-09T17:18:27.389Z,3.63
2024-05-09T17:20:57.787Z,4.10
2024-05-09T17:25:55.769Z,2.92
2024-05-09T17:28:26.258Z,3.85
2024-05-09T17:30:54.043Z,4.57
2024-05-09T17:33:24.528Z,4.18
2024-05-09T17:35:58.068Z,4.97
2024-05-09T17:38:28.357Z,4.22
2024-05-09T17:40:56.260Z,4.95
2024-05-09T17:43:26.837Z,6.78
2024-05-09T17:45:54.736Z,5.30
2024-05-09T17:48:25.433Z,4.80
2024-05-09T17:50:53.045Z,3.97
2024-05-09T17:53:25.920Z,4.25
2024-05-09T17:55:55.862Z,4.35
2024-05-09T17:58:26.275Z,3.78
2024-05-09T18:00:54.005Z,4.40
2024-05-09T18:03:25.804Z,4.90
2024-05-09T18:05:53.703Z,3.45
2024-05-09T18:08:26.740Z,3.63
2024-05-09T18:10:55.523Z,3.83
2024-05-09T18:13:26.380Z,3.47
2024-05-09T18:15:54.120Z,3.15
2024-05-09T18:18:24.888Z,3.65
2024-05-09T18:20:52.762Z,3.70
2024-05-09T18:23:25.962Z,3.67
2024-05-09T18:25:55.212Z,3.80
2024-05-09T18:28:25.998Z,3.40
2024-05-09T18:30:53.675Z,3.20
2024-05-09T18:33:24.633Z,4.20
2024-05-09T18:35:53.238Z,3.22
2024-05-09T18:38:27.363Z,3.60
2024-05-09T18:40:56.028Z,3.63
2024-05-09T18:43:31.659Z,3.35
2024-05-09T18:46:06.674Z,4.10
2024-05-09T18:48:38.153Z,4.07
2024-05-09T18:51:06.651Z,5.50
2024-05-09T18:53:42.261Z,4.00
2024-05-09T18:56:13.007Z,3.30
2024-05-09T18:58:47.180Z,3.95
2024-05-09T19:01:16.204Z,3.60
2024-05-09T19:03:51.319Z,3.67
2024-05-09T19:06:23.896Z,3.85
2024-05-09T19:09:00.416Z,3.35
2024-05-09T19:11:29.398Z,3.97
2024-05-09T19:14:04.534Z,3.47
2024-05-09T19:16:33.016Z,3.75
2024-05-09T19:19:05.083Z,3.30
2024-05-09T19:21:33.749Z,3.55
2024-05-09T19:24:08.064Z,3.42
2024-05-09T19:26:39.012Z,3.65
2024-05-09T19:29:10.794Z,4.03
2024-05-09T19:31:41.760Z,3.38
2024-05-09T19:34:13.341Z,3.50
2024-05-09T19:36:42.887Z,3.40
2024-05-09T19:39:17.547Z,4.15
2024-05-09T19:41:46.244Z,3.92
2024-05-09T19:44:18.197Z,3.65
2024-05-09T19:46:47.856Z,4.20
2024-05-09T19:49:19.339Z,3.85
2024-05-09T19:51:47.668Z,4.30
2024-05-09T19:54:21.080Z,4.10
2024-05-09T19:56:48.985Z,4.13
2024-05-09T19:59:20.398Z,4.13
2024-05-09T20:01:50.979Z,4.75
2024-05-09T20:04:19.439Z,4.55
2024-05-09T20:06:51.224Z,4.20
2024-05-09T20:09:22.030Z,3.95
2024-05-09T20:11:53.448Z,4.10
2024-05-09T20:14:22.950Z,4.38
2024-05-09T20:16:54.556Z,3.85
2024-05-09T20:19:24.095Z,5.15
2024-05-09T20:21:56.717Z,4.72
2024-05-09T20:24:27.643Z,4.43
2024-05-09T20:26:59.432Z,4.15
2024-05-09T20:29:27.916Z,3.90
2024-05-09T20:31:59.962Z,3.63
2024-05-09T20:34:30.371Z,3.28
2024-05-09T20:37:01.609Z,3.83
2024-05-09T20:39:33.307Z,4.13
2024-05-09T20:42:06.826Z,4.65
2024-05-09T20:44:35.018Z,4.60
2024-05-09T20:47:05.741Z,4.32
2024-05-09T20:49:33.834Z,4.28
2024-05-09T20:52:04.162Z,3.53
2024-05-09T20:54:34.490Z,4.03
2024-05-09T20:57:04.906Z,4.32
2024-05-09T20:59:32.477Z,4.35
2024-05-09T21:02:02.842Z,4.03
2024-05-09T21:04:30.902Z,3.60
2024-05-09T21:07:01.275Z,3.75
2024-05-09T21:09:28.897Z,4.35
2024-05-09T21:12:01.940Z,3.75
2024-05-09T21:14:29.603Z,3.50
2024-05-09T21:17:00.051Z,3.80
2024-05-09T21:19:27.871Z,4.43
2024-05-09T21:21:58.201Z,3.60
2024-05-09T21:24:25.860Z,4.47
2024-05-09T21:26:56.696Z,4.15
2024-05-09T21:29:26.989Z,3.85
2024-05-09T21:31:57.201Z,3.58
2024-05-09T21:34:25.199Z,3.72
2024-05-09T21:36:55.530Z,3.80
2024-05-09T21:39:24.830Z,3.58
2024-05-09T21:41:55.072Z,3.97
2024-05-09T21:44:25.349Z,4.40
2024-05-09T21:46:55.640Z,4.07
2024-05-09T21:49:23.407Z,3.53
2024-05-09T21:51:53.775Z,4.53
2024-05-09T21:54:21.572Z,3.90
2024-05-09T21:56:51.825Z,3.80
2024-05-09T21:59:19.434Z,4.55
2024-05-09T22:01:52.376Z,4.22
2024-05-09T22:04:20.147Z,3.95
2024-05-09T22:06:50.496Z,3.97
2024-05-09T22:09:18.124Z,3.65
2024-05-09T22:11:51.357Z,4.45
2024-05-09T22:14:21.321Z,4.55
2024-05-09T22:16:54.217Z,4.28
2024-05-09T22:19:21.879Z,4.28
2024-05-09T22:21:52.235Z,3.70
2024-05-09T22:24:19.889Z,4.82
2024-05-09T22:26:52.192Z,4.32
2024-05-09T22:29:19.794Z,5.63
2024-05-09T22:31:49.989Z,5.55
2024-05-09T22:34:20.508Z,5.57
2024-05-09T22:36:50.974Z,5.70
2024-05-09T22:39:18.638Z,5.03
2024-05-09T22:41:48.931Z,4.85
2024-05-09T22:44:16.593Z,4.90
2024-05-09T22:46:46.778Z,4.32
2024-05-09T22:49:14.572Z,4.60
2024-05-09T22:51:47.539Z,4.47
2024-05-09T22:54:15.226Z,5.07
2024-05-09T22:56:45.553Z,4.32
2024-05-09T22:59:13.370Z,4.30
2024-05-09T23:01:43.708Z,4.78
2024-05-09T23:04:11.498Z,4.32
2024-05-09T23:06:46.394Z,4.55
2024-05-09T23:09:14.014Z,4.75
2024-05-09T23:11:45.876Z,5.47
2024-05-09T23:14:13.541Z,5.85
2024-05-09T23:16:44.041Z,4.90
2024-05-09T23:19:11.729Z,5.28
2024-05-09T23:21:42.797Z,6.32
2024-05-09T23:24:13.144Z,5.55
2024-05-09T23:26:45.834Z,6.20
2024-05-09T23:29:13.470Z,6.68
2024-05-09T23:31:44.284Z,6.25
2024-05-09T23:34:12.117Z,5.90
2024-05-09T23:36:42.485Z,6.20
2024-05-09T23:39:12.871Z,6.68
2024-05-09T23:41:43.082Z,6.95
2024-05-09T23:44:10.687Z,6.95
2024-05-09T23:46:41.079Z,6.70
2024-05-09T23:49:09.160Z,7.75
2024-05-09T23:51:39.507Z,6.75
2024-05-09T23:54:08.685Z,6.32
2024-05-09T23:56:41.542Z,6.65
2024-05-09T23:59:09.170Z,5.03
